createdAt,value
2018-12-29T00:02:14.454Z,36.00
2018-12-29T00:04:41.956Z,34.37
2018-12-29T00:07:09.636Z,34.23
2018-12-29T00:09:37.105Z,36.97
2018-12-29T00:12:04.595Z,40.20
2018-12-29T00:14:32.145Z,43.83
2018-12-29T00:16:59.636Z,51.37
2018-12-29T00:19:27.132Z,50.60
2018-12-29T00:21:54.674Z,46.20
2018-12-29T00:24:22.269Z,46.97
2018-12-29T00:26:49.789Z,40.87
2018-12-29T00:29:17.330Z,37.57
2018-12-29T00:31:44.852Z,43.27
2018-12-29T00:34:12.355Z,35.03
2018-12-29T00:36:39.866Z,37.87
2018-12-29T00:39:07.381Z,36.83
2018-12-29T00:41:34.871Z,42.40
2018-12-29T00:44:02.460Z,37.40
2018-12-29T00:46:29.954Z,39.27
2018-12-29T00:48:57.462Z,45.30
2018-12-29T00:51:25.008Z,40.63
2018-12-29T00:53:52.550Z,39.57
2018-12-29T00:56:20.045Z,37.80
2018-12-29T00:58:47.594Z,41.37
2018-12-29T01:01:15.111Z,39.13
2018-12-29T01:03:42.595Z,35.33
2018-12-29T01:06:10.120Z,29.57
2018-12-29T01:08:37.622Z,35.53
2018-12-29T01:11:05.485Z,31.20
2018-12-29T01:13:33.010Z,26.40
2018-12-29T01:16:00.510Z,35.20
2018-12-29T01:18:28.013Z,31.67
2018-12-29T01:20:55.567Z,34.27
2018-12-29T01:23:23.261Z,31.80
2018-12-29T01:25:50.757Z,41.70
2018-12-29T01:28:18.295Z,31.67
2018-12-29T01:30:45.782Z,33.00
2018-12-29T01:33:13.271Z,32.10
2018-12-29T01:35:40.773Z,42.83
2018-12-29T01:38:08.255Z,36.87
2018-12-29T01:40:35.786Z,35.30
2018-12-29T01:43:03.281Z,40.37
2018-12-29T01:45:30.780Z,34.27
2018-12-29T01:47:58.331Z,29.97
2018-12-29T01:50:25.843Z,35.33
2018-12-29T01:52:53.323Z,29.20
2018-12-29T01:55:20.863Z,30.47
2018-12-29T01:57:48.373Z,28.03
2018-12-29T02:00:15.887Z,32.13
2018-12-29T02:02:43.443Z,29.10
2018-12-29T02:05:12.467Z,24.90
2018-12-29T02:07:39.976Z,31.53
2018-12-29T02:10:07.512Z,22.60
2018-12-29T02:12:35.038Z,25.20
2018-12-29T02:15:02.531Z,28.63
2018-12-29T02:17:30.051Z,25.30
2018-12-29T02:19:57.567Z,24.87
2018-12-29T02:22:25.131Z,30.03
2018-12-29T02:24:52.627Z,26.47
2018-12-29T02:27:20.137Z,25.37
2018-12-29T02:29:47.681Z,26.80
2018-12-29T02:32:15.174Z,27.50
2018-12-29T02:34:42.673Z,25.60
2018-12-29T02:37:10.229Z,26.00
2018-12-29T02:39:37.725Z,24.90
2018-12-29T02:42:05.230Z,30.10
2018-12-29T02:44:32.748Z,30.77
2018-12-29T02:47:00.235Z,29.77
2018-12-29T02:49:27.747Z,25.77
2018-12-29T02:51:55.279Z,19.47
2018-12-29T02:54:22.766Z,27.33
2018-12-29T02:56:50.263Z,23.47
2018-12-29T02:59:17.827Z,27.77
2018-12-29T03:01:45.310Z,22.83
2018-12-29T03:04:12.814Z,20.87
2018-12-29T03:06:40.341Z,17.87
2018-12-29T03:09:07.860Z,21.13
2018-12-29T03:11:35.355Z,21.67
2018-12-29T03:14:02.898Z,15.37
2018-12-29T03:16:30.395Z,21.10
2018-12-29T03:18:57.882Z,21.00
2018-12-29T03:21:25.406Z,28.63
2018-12-29T03:23:52.961Z,23.10
2018-12-29T03:26:20.930Z,24.60
2018-12-29T03:28:48.458Z,20.43
2018-12-29T03:31:15.951Z,24.07
2018-12-29T03:33:43.439Z,28.37
2018-12-29T03:36:10.935Z,20.30
2018-12-29T03:38:38.443Z,21.60
2018-12-29T03:41:05.982Z,20.23
2018-12-29T03:43:33.498Z,19.50
2018-12-29T03:46:00.992Z,17.47
2018-12-29T03:48:28.476Z,17.70
2018-12-29T03:50:55.997Z,18.77
2018-12-29T03:53:23.693Z,17.60
2018-12-29T03:55:51.190Z,18.57
2018-12-29T03:58:18.731Z,16.23
2018-12-29T04:00:46.242Z,15.30
2018-12-29T04:03:13.741Z,14.73
2018-12-29T04:05:41.283Z,14.17
2018-12-29T04:08:08.789Z,18.80
2018-12-29T04:10:36.291Z,18.23
2018-12-29T04:13:03.818Z,20.13
2018-12-29T04:15:31.315Z,22.77
2018-12-29T04:17:58.836Z,18.23
2018-12-29T04:20:26.371Z,16.23
2018-12-29T04:22:53.857Z,18.67
2018-12-29T04:25:25.630Z,18.20
2018-12-29T04:27:53.233Z,16.30
2018-12-29T04:30:21.030Z,14.50
2018-12-29T04:32:48.509Z,12.20
2018-12-29T04:35:16.043Z,20.40
2018-12-29T04:37:43.525Z,14.60
2018-12-29T04:40:11.045Z,18.67
2018-12-29T04:42:38.580Z,13.20
2018-12-29T04:45:06.062Z,21.00
2018-12-29T04:47:33.547Z,13.67
2018-12-29T04:50:01.317Z,19.67
2018-12-29T04:52:28.802Z,19.00
2018-12-29T04:54:56.277Z,17.90
2018-12-29T04:57:23.830Z,22.60
2018-12-29T04:59:51.341Z,18.83
2018-12-29T05:02:18.839Z,14.30
2018-12-29T05:04:46.401Z,16.73
2018-12-29T05:07:13.925Z,15.90
2018-12-29T05:09:41.429Z,19.23
2018-12-29T05:12:08.982Z,15.93
2018-12-29T05:14:36.477Z,16.63
2018-12-29T05:17:03.968Z,20.63
2018-12-29T05:19:31.505Z,19.13
2018-12-29T05:21:58.997Z,19.00
2018-12-29T05:24:26.523Z,17.33
2018-12-29T05:26:54.102Z,19.40
2018-12-29T05:29:21.577Z,20.17
2018-12-29T05:31:49.079Z,21.10
2018-12-29T05:34:16.627Z,23.97
2018-12-29T05:36:44.100Z,21.67
2018-12-29T05:39:11.593Z,19.20
2018-12-29T05:41:39.128Z,18.40
2018-12-29T05:44:06.613Z,20.77
2018-12-29T05:46:34.107Z,21.03
2018-12-29T05:49:01.656Z,23.10
2018-12-29T05:51:29.144Z,19.50
2018-12-29T05:53:56.654Z,22.77
2018-12-29T05:56:24.190Z,18.67
2018-12-29T05:58:51.673Z,21.53
2018-12-29T06:01:19.182Z,21.50
2018-12-29T06:03:46.721Z,28.40
2018-12-29T06:06:14.213Z,21.20
2018-12-29T06:08:41.712Z,19.20
2018-12-29T06:11:09.257Z,24.07
2018-12-29T06:13:36.733Z,27.37
2018-12-29T06:16:04.242Z,17.20
2018-12-29T06:18:31.774Z,21.27
2018-12-29T06:20:59.264Z,17.30
2018-12-29T06:23:26.755Z,14.57
2018-12-29T06:25:54.298Z,19.73
2018-12-29T06:28:21.987Z,19.40
2018-12-29T06:30:49.483Z,12.30
2018-12-29T06:33:17.032Z,21.50
2018-12-29T06:35:44.520Z,15.97
2018-12-29T06:38:12.040Z,16.67
2018-12-29T06:40:39.577Z,18.13
2018-12-29T06:43:07.075Z,21.87
2018-12-29T06:45:34.563Z,22.20
2018-12-29T06:48:02.085Z,19.97
2018-12-29T06:50:29.576Z,20.23
2018-12-29T06:52:57.065Z,20.27
2018-12-29T06:55:24.621Z,21.53
2018-12-29T06:57:52.121Z,21.27
2018-12-29T07:00:19.635Z,28.33
2018-12-29T07:02:47.201Z,22.73
2018-12-29T07:05:14.755Z,18.20
2018-12-29T07:07:42.233Z,25.23
2018-12-29T07:10:09.775Z,23.23
2018-12-29T07:12:37.269Z,27.43
2018-12-29T07:15:04.942Z,25.33
2018-12-29T07:17:32.457Z,33.53
2018-12-29T07:19:59.982Z,41.13
2018-12-29T07:22:27.481Z,36.97
2018-12-29T07:24:55.029Z,40.33
2018-12-29T07:27:22.590Z,30.97
2018-12-29T07:29:50.107Z,28.53
2018-12-29T07:32:17.643Z,24.67
2018-12-29T07:34:45.141Z,26.17
2018-12-29T07:37:12.636Z,20.37
2018-12-29T07:39:40.185Z,20.37
2018-12-29T07:42:07.681Z,19.13
2018-12-29T07:44:35.171Z,15.30
2018-12-29T07:47:02.820Z,16.10
2018-12-29T07:49:30.342Z,17.47
2018-12-29T07:51:57.856Z,18.07
2018-12-29T07:54:25.370Z,17.80
2018-12-29T07:56:52.857Z,16.37
2018-12-29T07:59:20.382Z,19.57
2018-12-29T08:01:47.908Z,17.00
2018-12-29T08:04:15.414Z,16.60
2018-12-29T08:06:42.930Z,21.87
2018-12-29T08:09:10.462Z,24.37
2018-12-29T08:11:37.950Z,18.60
2018-12-29T08:14:05.435Z,18.50
2018-12-29T08:16:32.962Z,23.57
2018-12-29T08:19:00.461Z,34.80
2018-12-29T08:21:27.940Z,31.50
2018-12-29T08:23:55.498Z,20.80
2018-12-29T08:26:23.073Z,22.97
2018-12-29T08:28:50.568Z,22.90
2018-12-29T08:31:18.098Z,17.87
2018-12-29T08:33:45.594Z,15.47
2018-12-29T08:36:13.110Z,17.50
2018-12-29T08:38:40.658Z,20.47
2018-12-29T08:41:08.154Z,20.17
2018-12-29T08:43:36.374Z,21.23
2018-12-29T08:46:03.919Z,21.87
2018-12-29T08:48:31.401Z,24.27
2018-12-29T08:50:58.923Z,18.37
2018-12-29T08:53:26.474Z,14.13
2018-12-29T08:55:53.997Z,21.63
2018-12-29T08:58:21.555Z,18.80
2018-12-29T09:00:49.138Z,23.30
2018-12-29T09:03:16.653Z,20.13
2018-12-29T09:05:44.142Z,20.03
2018-12-29T09:08:11.892Z,21.47
2018-12-29T09:10:39.418Z,18.80
2018-12-29T09:13:06.933Z,21.27
2018-12-29T09:15:34.520Z,22.53
2018-12-29T09:18:02.026Z,17.57
2018-12-29T09:20:29.534Z,24.00
2018-12-29T09:22:57.075Z,23.80
2018-12-29T09:25:24.622Z,24.33
2018-12-29T09:27:52.120Z,29.60
2018-12-29T09:30:19.662Z,27.70
2018-12-29T09:32:47.162Z,20.17
2018-12-29T09:35:14.684Z,19.03
2018-12-29T09:37:42.199Z,25.73
2018-12-29T09:40:09.720Z,21.07
2018-12-29T09:42:37.215Z,26.90
2018-12-29T09:45:04.798Z,18.07
2018-12-29T09:47:32.334Z,17.03
2018-12-29T09:49:59.830Z,15.27
2018-12-29T09:52:27.596Z,23.37
2018-12-29T09:54:55.122Z,19.63
2018-12-29T09:57:22.646Z,16.93
2018-12-29T09:59:50.220Z,17.33
2018-12-29T10:02:17.738Z,15.47
2018-12-29T10:04:45.249Z,16.57
2018-12-29T10:07:12.794Z,15.07
2018-12-29T10:09:40.337Z,15.13
2018-12-29T10:12:07.778Z,16.77
2018-12-29T10:14:35.321Z,15.67
2018-12-29T10:17:02.862Z,24.90
2018-12-29T10:19:30.381Z,21.93
2018-12-29T10:21:57.942Z,16.40
2018-12-29T10:24:25.541Z,14.03
2018-12-29T10:26:53.037Z,14.47
2018-12-29T10:29:20.615Z,12.53
2018-12-29T10:31:48.129Z,19.63
2018-12-29T10:34:15.639Z,15.60
2018-12-29T10:36:43.182Z,26.37
2018-12-29T10:39:10.811Z,16.90
2018-12-29T10:41:38.315Z,15.87
2018-12-29T10:44:05.866Z,16.70
2018-12-29T10:46:33.394Z,13.73
2018-12-29T10:49:00.898Z,12.57
2018-12-29T10:51:28.562Z,30.53
2018-12-29T10:53:56.160Z,38.10
2018-12-29T10:56:23.699Z,24.90
2018-12-29T10:58:51.320Z,16.93
2018-12-29T11:01:18.891Z,22.37
2018-12-29T11:03:46.397Z,19.60
2018-12-29T11:06:13.942Z,30.27
2018-12-29T11:08:41.482Z,20.80
2018-12-29T11:11:08.975Z,17.73
2018-12-29T11:13:36.529Z,18.30
2018-12-29T11:16:04.703Z,22.20
2018-12-29T11:18:32.237Z,20.33
2018-12-29T11:20:59.769Z,23.43
2018-12-29T11:23:27.258Z,25.67
2018-12-29T11:25:54.845Z,26.23
2018-12-29T11:28:22.402Z,16.57
2018-12-29T11:30:49.922Z,26.13
2018-12-29T11:33:17.431Z,21.80
2018-12-29T11:35:45.018Z,21.80
2018-12-29T11:38:12.511Z,22.17
2018-12-29T11:40:40.006Z,28.77
2018-12-29T11:43:07.586Z,28.30
2018-12-29T11:45:35.090Z,36.40
2018-12-29T11:48:02.590Z,39.23
2018-12-29T11:50:30.183Z,29.17
2018-12-29T11:52:57.729Z,33.13
2018-12-29T11:55:25.244Z,37.77
2018-12-29T11:57:52.801Z,33.97
2018-12-29T12:00:20.308Z,23.10
2018-12-29T12:02:47.825Z,26.43
2018-12-29T12:05:15.365Z,26.73
2018-12-29T12:07:42.878Z,27.27
2018-12-29T12:10:10.381Z,25.67
2018-12-29T12:12:38.201Z,26.10
2018-12-29T12:15:06.057Z,23.00
2018-12-29T12:17:33.564Z,29.17
2018-12-29T12:20:01.133Z,32.40
2018-12-29T12:22:28.881Z,32.33
2018-12-29T12:24:56.845Z,30.90
2018-12-29T12:27:24.390Z,33.30
2018-12-29T12:29:52.305Z,28.03
2018-12-29T12:32:19.802Z,32.43
2018-12-29T12:34:47.697Z,26.73
2018-12-29T12:37:15.252Z,32.03
2018-12-29T12:39:43.057Z,35.90
2018-12-29T12:42:10.621Z,26.07
2018-12-29T12:44:38.153Z,24.33
2018-12-29T12:47:05.989Z,25.53
2018-12-29T12:49:33.542Z,27.63
2018-12-29T12:52:01.062Z,30.17
2018-12-29T12:54:28.845Z,38.10
2018-12-29T12:56:56.389Z,30.63
2018-12-29T12:59:23.891Z,30.73
2018-12-29T13:01:51.409Z,31.87
2018-12-29T13:04:18.977Z,25.13
2018-12-29T13:06:46.504Z,36.20
2018-12-29T13:09:14.011Z,33.00
2018-12-29T13:11:41.587Z,37.77
2018-12-29T13:14:09.140Z,31.87
2018-12-29T13:16:36.635Z,31.40
2018-12-29T13:19:04.173Z,34.03
2018-12-29T13:21:32.001Z,35.57
2018-12-29T13:23:59.512Z,30.80
2018-12-29T13:26:27.031Z,39.40
2018-12-29T13:28:54.625Z,28.93
2018-12-29T13:31:22.130Z,24.13
2018-12-29T13:33:49.689Z,24.50
2018-12-29T13:36:17.191Z,32.50
2018-12-29T13:38:44.713Z,29.23
2018-12-29T13:41:12.263Z,26.87
2018-12-29T13:43:39.775Z,26.47
2018-12-29T13:46:07.334Z,28.73
2018-12-29T13:48:35.209Z,28.13
2018-12-29T13:51:02.726Z,29.23
2018-12-29T13:53:30.278Z,21.80
2018-12-29T13:55:57.852Z,17.83
2018-12-29T13:58:25.379Z,19.00
2018-12-29T14:00:52.898Z,22.20
2018-12-29T14:03:20.502Z,21.17
2018-12-29T14:05:48.080Z,27.93
2018-12-29T14:08:15.595Z,30.60
2018-12-29T14:10:43.208Z,46.47
2018-12-29T14:13:10.738Z,37.47
2018-12-29T14:15:38.241Z,33.10
2018-12-29T14:18:05.815Z,29.70
2018-12-29T14:20:33.314Z,44.23
2018-12-29T14:23:00.842Z,30.03
2018-12-29T14:25:28.418Z,21.63
2018-12-29T14:27:56.300Z,21.13
2018-12-29T14:30:23.837Z,20.60
2018-12-29T14:32:51.444Z,21.23
2018-12-29T14:35:18.958Z,22.80
2018-12-29T14:37:46.541Z,19.53
2018-12-29T14:40:14.448Z,23.77
2018-12-29T14:42:41.958Z,19.63
2018-12-29T14:45:10.268Z,17.03
2018-12-29T14:47:37.857Z,17.67
2018-12-29T14:50:05.668Z,20.20
2018-12-29T14:52:33.256Z,16.53
2018-12-29T14:55:00.851Z,15.73
2018-12-29T14:57:28.369Z,23.33
2018-12-29T14:59:55.928Z,31.47
2018-12-29T15:02:23.512Z,43.70
2018-12-29T15:04:52.727Z,46.73
2018-12-29T15:07:20.404Z,53.67
2018-12-29T15:09:47.971Z,56.83
2018-12-29T15:12:15.549Z,47.37
2018-12-29T15:14:43.069Z,40.33
2018-12-29T15:17:10.655Z,42.53
2018-12-29T15:19:38.188Z,44.77
2018-12-29T15:22:05.724Z,41.93
2018-12-29T15:24:35.751Z,44.43
2018-12-29T15:27:03.414Z,37.63
2018-12-29T15:29:30.971Z,30.73
2018-12-29T15:31:58.553Z,36.90
2018-12-29T15:34:26.069Z,36.63
2018-12-29T15:36:58.926Z,39.93
2018-12-29T15:39:26.697Z,41.17
2018-12-29T15:41:54.241Z,47.17
2018-12-29T15:44:22.937Z,42.77
2018-12-29T15:46:50.956Z,53.03
2018-12-29T15:49:18.476Z,48.40
2018-12-29T15:51:46.022Z,46.07
2018-12-29T15:54:13.585Z,46.70
2018-12-29T15:56:41.196Z,80.27
2018-12-29T15:59:08.746Z,58.33
2018-12-29T16:01:36.278Z,80.13
2018-12-29T16:04:03.860Z,59.87
2018-12-29T16:06:31.552Z,55.13
2018-12-29T16:08:59.098Z,49.20
2018-12-29T16:11:27.345Z,56.30
2018-12-29T16:13:54.900Z,54.97
2018-12-29T16:16:22.460Z,47.20
2018-12-29T16:18:50.004Z,53.00
2018-12-29T16:21:17.955Z,47.87
2018-12-29T16:23:46.589Z,52.17
2018-12-29T16:26:14.258Z,48.47
2018-12-29T16:28:42.309Z,57.53
2018-12-29T16:31:10.244Z,53.40
2018-12-29T16:33:37.827Z,51.03
2018-12-29T16:36:05.648Z,53.03
2018-12-29T16:38:33.304Z,45.87
2018-12-29T16:41:01.268Z,53.40
2018-12-29T16:43:28.790Z,52.77
2018-12-29T16:45:56.332Z,47.00
2018-12-29T16:48:23.896Z,67.97
2018-12-29T16:50:51.655Z,63.13
2018-12-29T16:53:19.166Z,54.23
2018-12-29T16:55:46.793Z,50.67
2018-12-29T16:58:14.339Z,48.67
2018-12-29T17:00:41.875Z,52.67
2018-12-29T17:03:09.476Z,48.83
2018-12-29T17:05:37.030Z,60.07
2018-12-29T17:08:04.762Z,50.50
2018-12-29T17:10:32.602Z,53.40
2018-12-29T17:13:00.158Z,53.53
2018-12-29T17:15:27.728Z,58.90
2018-12-29T17:17:55.344Z,62.27
2018-12-29T17:20:22.875Z,84.40
2018-12-29T17:22:50.419Z,65.27
2018-12-29T17:25:18.008Z,63.87
2018-12-29T17:27:45.613Z,70.27
2018-12-29T17:30:13.228Z,60.47
2018-12-29T17:32:41.112Z,70.43
2018-12-29T17:35:08.663Z,61.03
2018-12-29T17:37:36.219Z,64.43
2018-12-29T17:40:03.926Z,60.30
2018-12-29T17:42:31.859Z,55.03
2018-12-29T17:44:59.645Z,48.93
2018-12-29T17:47:27.232Z,48.27
2018-12-29T17:49:54.820Z,49.90
2018-12-29T17:52:24.100Z,51.67
2018-12-29T17:54:51.745Z,60.23
2018-12-29T17:57:19.282Z,65.87
2018-12-29T17:59:46.827Z,69.87
2018-12-29T18:02:14.372Z,76.40
2018-12-29T18:04:41.925Z,68.63
2018-12-29T18:07:09.466Z,77.83
2018-12-29T18:09:37.072Z,81.30
2018-12-29T18:12:04.631Z,72.70
2018-12-29T18:14:32.205Z,58.80
2018-12-29T18:16:59.825Z,59.50
2018-12-29T18:19:30.615Z,61.03
2018-12-29T18:21:56.760Z,61.00
2018-12-29T18:24:24.400Z,62.53
2018-12-29T18:26:51.916Z,59.10
2018-12-29T18:29:19.464Z,68.90
2018-12-29T18:31:47.088Z,63.07
2018-12-29T18:34:14.645Z,62.00
2018-12-29T18:36:42.192Z,55.20
2018-12-29T18:39:09.819Z,66.23
2018-12-29T18:41:37.394Z,71.00
2018-12-29T18:44:05.374Z,67.77
2018-12-29T18:46:33.015Z,64.67
2018-12-29T18:49:00.611Z,68.77
2018-12-29T18:51:28.204Z,67.60
2018-12-29T18:53:55.875Z,69.50
2018-12-29T18:56:23.758Z,76.60
2018-12-29T18:58:51.434Z,91.60
2018-12-29T19:01:19.029Z,90.00
2018-12-29T19:03:46.628Z,80.90
2018-12-29T19:06:14.169Z,93.00
2018-12-29T19:08:42.307Z,83.13
2018-12-29T19:11:09.885Z,87.37
2018-12-29T19:13:37.483Z,66.80
2018-12-29T19:16:05.458Z,79.37
2018-12-29T19:18:33.069Z,80.67
2018-12-29T19:21:01.939Z,76.30
2018-12-29T19:23:31.963Z,84.97
2018-12-29T19:25:59.983Z,81.30
2018-12-29T19:28:27.937Z,97.33
2018-12-29T19:30:55.567Z,99.67
2018-12-29T19:33:24.967Z,116.70
2018-12-29T19:35:53.544Z,118.30
2018-12-29T19:38:21.571Z,94.60
2018-12-29T19:40:50.992Z,115.37
2018-12-29T19:43:18.548Z,121.03
2018-12-29T19:45:46.154Z,128.97
2018-12-29T19:48:13.755Z,128.53
2018-12-29T19:50:41.217Z,94.30
2018-12-29T19:53:09.072Z,99.67
2018-12-29T19:55:36.681Z,86.73
2018-12-29T19:58:04.218Z,96.03
2018-12-29T20:00:32.287Z,91.00
2018-12-29T20:02:59.856Z,94.60
2018-12-29T20:05:27.851Z,90.43
2018-12-29T20:07:55.379Z,98.73
2018-12-29T20:10:22.928Z,89.63
2018-12-29T20:12:50.460Z,81.60
2018-12-29T20:15:18.460Z,79.53
2018-12-29T20:17:46.057Z,87.63
2018-12-29T20:20:13.683Z,103.80
2018-12-29T20:22:41.335Z,80.93
2018-12-29T20:25:08.870Z,89.33
2018-12-29T20:27:36.369Z,89.83
2018-12-29T20:30:04.563Z,82.17
2018-12-29T20:32:32.149Z,99.30
2018-12-29T20:34:59.683Z,94.03
2018-12-29T20:37:27.274Z,90.43
2018-12-29T20:39:54.839Z,88.37
2018-12-29T20:42:22.351Z,91.60
2018-12-29T20:44:49.866Z,102.63
2018-12-29T20:47:17.397Z,91.50
2018-12-29T20:49:44.991Z,87.70
2018-12-29T20:52:12.576Z,90.67
2018-12-29T20:54:40.087Z,97.73
2018-12-29T20:57:07.612Z,99.53
2018-12-29T20:59:35.159Z,101.17
2018-12-29T21:02:02.664Z,100.03
2018-12-29T21:04:30.194Z,105.03
2018-12-29T21:06:57.751Z,93.83
2018-12-29T21:09:25.290Z,99.87
2018-12-29T21:11:52.849Z,97.20
2018-12-29T21:14:20.402Z,89.97
2018-12-29T21:16:47.916Z,88.00
2018-12-29T21:19:15.501Z,96.13
2018-12-29T21:21:43.429Z,83.17
2018-12-29T21:24:12.445Z,83.20
2018-12-29T21:26:40.174Z,85.97
2018-12-29T21:29:07.729Z,74.03
2018-12-29T21:31:35.334Z,72.77
2018-12-29T21:34:02.937Z,85.47
2018-12-29T21:36:30.487Z,91.73
2018-12-29T21:38:58.041Z,81.37
2018-12-29T21:41:25.557Z,86.77
2018-12-29T21:43:53.120Z,78.40
2018-12-29T21:46:20.659Z,99.87
2018-12-29T21:48:48.190Z,82.43
2018-12-29T21:51:15.850Z,95.77
2018-12-29T21:53:43.384Z,97.40
2018-12-29T21:56:10.920Z,92.10
2018-12-29T21:58:38.465Z,87.20
2018-12-29T22:01:05.969Z,85.07
2018-12-29T22:03:33.482Z,89.03
2018-12-29T22:06:01.045Z,84.17
2018-12-29T22:08:28.569Z,75.23
2018-12-29T22:10:56.060Z,82.20
2018-12-29T22:13:24.042Z,81.53
2018-12-29T22:15:51.515Z,77.87
2018-12-29T22:18:19.029Z,84.13
2018-12-29T22:20:46.592Z,76.03
2018-12-29T22:23:14.095Z,67.00
2018-12-29T22:25:48.232Z,74.63
2018-12-29T22:28:10.961Z,76.30
2018-12-29T22:30:38.867Z,75.47
2018-12-29T22:33:06.442Z,81.07
2018-12-29T22:35:33.985Z,81.47
2018-12-29T22:38:01.559Z,83.27
2018-12-29T22:40:29.055Z,84.87
2018-12-29T22:42:56.613Z,90.87
2018-12-29T22:45:24.144Z,79.33
2018-12-29T22:47:51.679Z,78.93
2018-12-29T22:50:19.299Z,76.50
2018-12-29T22:52:46.817Z,82.93
2018-12-29T22:55:14.345Z,75.90
2018-12-29T22:57:41.886Z,77.03
2018-12-29T23:00:17.098Z,74.43
2018-12-29T23:02:44.667Z,76.70
2018-12-29T23:05:12.495Z,78.50
2018-12-29T23:07:40.007Z,71.50
2018-12-29T23:10:07.569Z,74.07
2018-12-29T23:12:35.084Z,72.93
2018-12-29T23:15:03.039Z,75.30
2018-12-29T23:17:30.610Z,75.90
2018-12-29T23:19:58.123Z,68.70
2018-12-29T23:22:26.043Z,70.27
2018-12-29T23:24:53.609Z,65.10
2018-12-29T23:27:21.167Z,76.97
2018-12-29T23:29:48.764Z,75.23
2018-12-29T23:32:16.313Z,74.57
2018-12-29T23:34:43.859Z,63.27
2018-12-29T23:37:11.488Z,61.30
2018-12-29T23:39:38.993Z,68.37
2018-12-29T23:42:06.541Z,61.10
2018-12-29T23:44:34.030Z,62.73
2018-12-29T23:47:01.537Z,68.10
2018-12-29T23:49:29.578Z,69.40
2018-12-29T23:51:57.357Z,68.03
2018-12-29T23:54:24.861Z,63.27
2018-12-29T23:56:52.741Z,64.37
2018-12-29T23:59:20.234Z,70.73
